Time;durP1;ratioP1;P1;durP2;ratioP2;P2;SDS_P1;SDS_P2;PMS_P1;PMS_P2;Temp;Humidity;BMP_temperature;BMP_pressure;BME280_temperature;BME280_humidity;BME280_pressure;Samples;Min_cycle;Max_cycle;Signal;HPM_P1;HPM_P2
2021/08/13 00:01:03;;;;;;;20.37;15.50;;;13.90;99.90;;;;;;6300522;22;20163;-82
2021/08/13 00:03:32;;;;;;;21.73;15.73;;;13.90;99.90;;;;;;6302496;22;20259;-82
2021/08/13 00:06:01;;;;;;;20.03;16.00;;;13.90;99.90;;;;;;6303359;22;20156;-82
2021/08/13 00:08:30;;;;;;;19.50;15.83;;;13.90;99.90;;;;;;6315746;22;20349;-83
2021/08/13 00:11:00;;;;;;;19.90;15.57;;;13.90;99.90;;;;;;6310264;22;20149;-82
2021/08/13 00:13:29;;;;;;;21.53;16.23;;;13.80;99.90;;;;;;6316905;22;20158;-84
2021/08/13 00:15:57;;;;;;;19.97;16.47;;;13.80;99.90;;;;;;6331145;22;20161;-85
2021/08/13 00:18:26;;;;;;;20.80;16.63;;;13.80;99.90;;;;;;6333467;22;20224;-85
2021/08/13 00:20:55;;;;;;;17.70;15.80;;;13.80;99.90;;;;;;6331138;22;20180;-84
2021/08/13 00:23:24;;;;;;;18.97;15.27;;;13.80;99.90;;;;;;6333738;22;20172;-83
2021/08/13 00:25:53;;;;;;;20.50;15.43;;;13.70;99.90;;;;;;6326192;22;20163;-82
2021/08/13 00:28:23;;;;;;;17.17;15.37;;;13.70;99.90;;;;;;6318984;22;20163;-81
2021/08/13 00:30:52;;;;;;;17.73;15.83;;;13.60;99.90;;;;;;6316275;22;20482;-82
2021/08/13 00:33:23;;;;;;;19.30;16.23;;;13.60;99.90;;;;;;6313455;22;20201;-82
2021/08/13 00:35:52;;;;;;;18.43;16.30;;;13.60;99.90;;;;;;6314863;22;20152;-83
2021/08/13 00:38:23;;;;;;;19.07;17.00;;;13.70;99.90;;;;;;6338280;22;20141;-84
2021/08/13 00:40:52;;;;;;;18.47;16.13;;;13.60;99.90;;;;;;6331924;22;20231;-83
2021/08/13 00:43:22;;;;;;;19.27;16.33;;;13.70;99.90;;;;;;6334260;22;20145;-84
2021/08/13 00:45:51;;;;;;;20.83;17.23;;;13.70;99.90;;;;;;6337099;22;20218;-83
2021/08/13 00:48:20;;;;;;;23.33;17.70;;;13.70;99.90;;;;;;6335754;22;20151;-83
2021/08/13 00:50:51;;;;;;;20.63;16.17;;;13.60;99.90;;;;;;6335883;22;20416;-84
2021/08/13 00:53:20;;;;;;;19.87;16.00;;;13.70;99.90;;;;;;6337544;22;20167;-82
2021/08/13 00:55:50;;;;;;;17.57;15.73;;;13.60;99.90;;;;;;6340004;22;20244;-82
2021/08/13 00:58:22;;;;;;;18.97;16.13;;;13.50;99.90;;;;;;6338053;22;20481;-84
2021/08/13 01:00:52;;;;;;;20.77;15.63;;;13.50;99.90;;;;;;6337847;22;20172;-83
2021/08/13 01:03:20;;;;;;;16.73;14.87;;;13.50;99.90;;;;;;6338494;22;20183;-84
2021/08/13 01:05:52;;;;;;;18.47;16.20;;;13.50;99.90;;;;;;6319083;22;20153;-82
2021/08/13 01:08:20;;;;;;;17.30;15.33;;;13.50;99.90;;;;;;6317622;22;20152;-82
2021/08/13 01:11:05;;;;;;;20.07;16.23;;;13.50;99.90;;;;;;6314777;22;20279;-83
2021/08/13 01:13:46;;;;;;;19.30;15.60;;;13.50;99.90;;;;;;6317084;22;20186;-84
2021/08/13 01:16:18;;;;;;;16.90;15.10;;;13.50;99.90;;;;;;6321822;22;20164;-82
2021/08/13 01:18:52;;;;;;;18.43;15.57;;;13.40;99.90;;;;;;6314312;22;20228;-84
2021/08/13 01:21:39;;;;;;;20.57;16.00;;;13.40;99.90;;;;;;6322955;22;20191;-83
2021/08/13 01:24:11;;;;;;;17.50;15.60;;;13.30;99.90;;;;;;6327240;22;20467;-84
2021/08/13 01:26:45;;;;;;;18.93;15.73;;;13.40;99.90;;;;;;6334996;22;20167;-83
2021/08/13 01:29:26;;;;;;;20.17;16.87;;;13.40;99.90;;;;;;6331315;22;20523;-83
2021/08/13 01:32:08;;;;;;;17.60;15.33;;;13.40;99.90;;;;;;6326992;22;20160;-82
2021/08/13 01:34:43;;;;;;;17.13;15.00;;;13.40;99.90;;;;;;6330700;22;20157;-84
2021/08/13 01:37:13;;;;;;;16.63;14.77;;;13.40;99.90;;;;;;6331198;22;20183;-82
2021/08/13 01:39:44;;;;;;;22.50;15.87;;;13.30;99.90;;;;;;6328411;22;20188;-83
2021/08/13 01:42:13;;;;;;;17.87;15.97;;;13.30;99.90;;;;;;6326067;22;20172;-84
2021/08/13 01:44:43;;;;;;;17.77;15.70;;;13.20;99.90;;;;;;6316649;22;20180;-83
2021/08/13 01:47:12;;;;;;;16.70;15.00;;;13.20;99.90;;;;;;6314248;22;20164;-82
2021/08/13 01:49:44;;;;;;;18.57;15.50;;;13.20;99.90;;;;;;6310610;22;20172;-82
2021/08/13 01:52:14;;;;;;;18.63;16.23;;;13.30;99.90;;;;;;6306621;22;20225;-83
2021/08/13 01:54:43;;;;;;;16.83;15.03;;;13.30;99.90;;;;;;6321389;22;20184;-84
2021/08/13 01:57:12;;;;;;;17.33;15.53;;;13.20;99.90;;;;;;6310523;22;20768;-83
2021/08/13 01:59:41;;;;;;;19.60;15.20;;;13.10;99.90;;;;;;6299387;22;20187;-83
2021/08/13 02:02:10;;;;;;;18.77;15.43;;;13.10;99.90;;;;;;6299308;22;20175;-82
2021/08/13 02:04:43;;;;;;;18.90;16.80;;;13.10;99.90;;;;;;6303724;22;20179;-84
2021/08/13 02:07:16;;;;;;;20.20;16.23;;;13.10;99.90;;;;;;6303226;22;20151;-84
2021/08/13 02:09:46;;;;;;;16.80;14.83;;;13.10;99.90;;;;;;6310148;22;20160;-84
2021/08/13 02:12:45;;;;;;;18.40;15.87;;;13.10;99.90;;;;;;6334305;22;20190;-82
2021/08/13 02:15:16;;;;;;;18.27;16.10;;;13.10;99.90;;;;;;6336245;22;20160;-84
2021/08/13 02:17:50;;;;;;;23.97;16.03;;;13.00;99.90;;;;;;6332173;22;20156;-84
2021/08/13 02:20:22;;;;;;;22.67;17.03;;;13.00;99.90;;;;;;6306490;22;20184;-83
2021/08/13 02:22:51;;;;;;;22.73;16.53;;;13.00;99.90;;;;;;6309809;22;20583;-82
2021/08/13 02:25:21;;;;;;;20.83;16.73;;;12.90;99.90;;;;;;6318754;22;20160;-82
2021/08/13 02:27:51;;;;;;;18.23;16.07;;;13.00;99.90;;;;;;6303338;22;20263;-82
2021/08/13 02:30:20;;;;;;;20.80;16.97;;;13.00;99.90;;;;;;6301196;22;20245;-83
2021/08/13 02:32:48;;;;;;;22.60;17.87;;;13.00;99.90;;;;;;6267746;22;20168;-83
2021/08/13 02:35:18;;;;;;;23.57;18.83;;;13.00;99.90;;;;;;6306331;22;20168;-83
2021/08/13 02:37:52;;;;;;;26.97;19.63;;;12.90;99.90;;;;;;6307298;22;20547;-84
2021/08/13 02:40:26;;;;;;;25.27;19.80;;;13.00;99.90;;;;;;6321727;22;20195;-82
2021/08/13 02:43:02;;;;;;;23.60;19.07;;;13.00;99.90;;;;;;6318151;22;20156;-81
2021/08/13 02:45:36;;;;;;;30.87;21.13;;;13.00;99.90;;;;;;6325938;22;20206;-83
2021/08/13 02:48:06;;;;;;;29.67;20.93;;;12.90;99.90;;;;;;6320469;22;20156;-82
2021/08/13 02:50:38;;;;;;;31.83;23.07;;;12.90;99.90;;;;;;6316800;22;20581;-81
2021/08/13 02:53:10;;;;;;;31.47;23.70;;;12.90;99.90;;;;;;6316304;22;20172;-81
2021/08/13 02:55:44;;;;;;;35.83;24.03;;;12.80;99.90;;;;;;6309688;22;20152;-84
2021/08/13 02:58:17;;;;;;;34.60;24.57;;;12.80;99.90;;;;;;6309789;22;20156;-82
2021/08/13 03:00:47;;;;;;;33.80;24.87;;;12.80;99.90;;;;;;6306751;22;20690;-82
2021/08/13 03:03:18;;;;;;;34.87;24.63;;;12.80;99.90;;;;;;6303564;22;20511;-83
2021/08/13 03:05:50;;;;;;;33.80;24.67;;;12.70;99.90;;;;;;6303504;22;20172;-82
2021/08/13 03:08:23;;;;;;;34.63;23.93;;;12.70;99.90;;;;;;6302374;22;20157;-82
2021/08/13 03:10:52;;;;;;;32.17;23.67;;;12.70;99.90;;;;;;6306085;22;20221;-83
2021/08/13 03:13:25;;;;;;;29.73;22.63;;;12.70;99.90;;;;;;6306121;22;20192;-83
2021/08/13 03:15:55;;;;;;;32.60;23.20;;;12.70;99.90;;;;;;6306045;22;20932;-81
2021/08/13 03:18:25;;;;;;;30.13;22.10;;;12.70;99.90;;;;;;6308001;22;20161;-82
2021/08/13 03:20:54;;;;;;;28.97;21.60;;;12.70;99.90;;;;;;6309686;22;20480;-82
2021/08/13 03:23:25;;;;;;;29.07;22.07;;;12.80;99.90;;;;;;6312198;22;20212;-83
2021/08/13 03:25:54;;;;;;;25.40;20.80;;;12.80;99.90;;;;;;6310995;22;20172;-83
2021/08/13 03:28:23;;;;;;;26.63;21.07;;;12.80;99.90;;;;;;6301864;22;20176;-83
2021/08/13 03:30:51;;;;;;;25.90;21.17;;;12.80;99.90;;;;;;6302698;22;20191;-81
2021/08/13 03:33:21;;;;;;;25.53;20.93;;;12.80;99.90;;;;;;6307215;22;20296;-83
2021/08/13 03:35:50;;;;;;;26.23;21.50;;;12.80;99.90;;;;;;6301205;22;20214;-83
2021/08/13 03:38:19;;;;;;;25.73;19.87;;;12.90;99.90;;;;;;6298998;22;20160;-83
2021/08/13 03:40:49;;;;;;;26.10;20.33;;;12.90;99.90;;;;;;6302737;22;20188;-83
2021/08/13 03:43:18;;;;;;;22.93;19.73;;;12.90;99.90;;;;;;6307730;22;20149;-83
2021/08/13 03:45:46;;;;;;;24.17;20.07;;;13.00;99.90;;;;;;6311258;22;20164;-82
2021/08/13 03:48:15;;;;;;;24.17;19.23;;;13.00;99.90;;;;;;6324643;22;20157;-83
2021/08/13 03:50:44;;;;;;;21.53;18.70;;;13.00;99.90;;;;;;6307270;22;20156;-83
2021/08/13 03:53:12;;;;;;;26.73;19.80;;;13.00;99.90;;;;;;6303457;22;20221;-82
2021/08/13 03:55:41;;;;;;;21.27;18.50;;;13.10;99.90;;;;;;6301626;22;20145;-84
2021/08/13 03:58:11;;;;;;;24.27;19.40;;;13.10;99.90;;;;;;6298801;22;20233;-84
2021/08/13 04:00:40;;;;;;;23.17;19.43;;;13.10;99.90;;;;;;6299867;22;20179;-82
2021/08/13 04:03:08;;;;;;;20.37;18.27;;;13.20;99.90;;;;;;6300099;22;20152;-85
2021/08/13 04:05:37;;;;;;;20.60;18.40;;;13.20;99.90;;;;;;6302592;22;20500;-83
2021/08/13 04:08:06;;;;;;;21.97;19.10;;;13.30;99.90;;;;;;6274832;22;20161;-83
2021/08/13 04:10:35;;;;;;;22.73;19.17;;;13.30;99.90;;;;;;6302669;22;20249;-84
2021/08/13 04:13:04;;;;;;;23.80;18.50;;;13.40;99.90;;;;;;6303566;22;20508;-84
2021/08/13 04:15:34;;;;;;;20.90;18.23;;;13.40;99.90;;;;;;6303997;22;20907;-83
2021/08/13 04:18:03;;;;;;;20.97;18.67;;;13.40;99.90;;;;;;6302192;22;20507;-82
2021/08/13 04:20:31;;;;;;;20.90;18.60;;;13.50;99.90;;;;;;6300943;22;20226;-83
2021/08/13 04:23:01;;;;;;;22.10;18.50;;;13.60;99.90;;;;;;6299747;22;20206;-81
2021/08/13 04:25:30;;;;;;;20.87;18.30;;;13.70;99.90;;;;;;6305310;22;20176;-83
2021/08/13 04:27:59;;;;;;;22.27;18.73;;;13.80;99.90;;;;;;6307713;22;20650;-85
2021/08/13 04:30:28;;;;;;;22.23;18.10;;;13.90;99.90;;;;;;6261171;22;20176;-82
2021/08/13 04:32:58;;;;;;;20.73;18.40;;;14.00;99.90;;;;;;6307439;22;20199;-82
2021/08/13 04:35:28;;;;;;;21.47;17.23;;;14.10;99.90;;;;;;6307948;22;20663;-84
2021/08/13 04:37:57;;;;;;;20.90;16.67;;;14.20;99.90;;;;;;6307050;22;20175;-81
2021/08/13 04:40:27;;;;;;;21.70;17.37;;;14.30;99.90;;;;;;6312350;22;20420;-81
2021/08/13 04:42:56;;;;;;;19.40;17.07;;;14.40;99.90;;;;;;6304456;22;20176;-83
2021/08/13 04:45:25;;;;;;;19.20;16.83;;;14.60;99.90;;;;;;6301977;22;20187;-83
2021/08/13 04:47:54;;;;;;;18.07;16.17;;;14.80;99.90;;;;;;6300387;22;20156;-82
2021/08/13 04:50:25;;;;;;;19.17;16.33;;;15.00;99.90;;;;;;6305891;22;20187;-82
2021/08/13 04:52:54;;;;;;;18.53;15.70;;;15.10;99.90;;;;;;6307674;22;20180;-82
2021/08/13 04:55:24;;;;;;;17.20;15.40;;;15.30;99.90;;;;;;6320422;22;20219;-83
2021/08/13 04:57:56;;;;;;;17.33;14.67;;;15.40;99.90;;;;;;6319192;22;20167;-81
2021/08/13 05:00:25;;;;;;;16.90;14.87;;;15.50;99.90;;;;;;6333494;22;20160;-81
2021/08/13 05:02:53;;;;;;;17.07;14.80;;;15.70;99.90;;;;;;6333400;22;20175;-83
2021/08/13 05:05:24;;;;;;;16.60;14.83;;;15.90;99.90;;;;;;6329025;22;20140;-86
2021/08/13 05:07:53;;;;;;;18.00;14.67;;;15.90;99.90;;;;;;6306370;22;20484;-84
2021/08/13 05:10:22;;;;;;;16.47;14.60;;;16.10;99.90;;;;;;6303964;22;20168;-84
2021/08/13 05:12:55;;;;;;;16.47;14.33;;;16.10;99.90;;;;;;6304902;22;20168;-82
2021/08/13 05:15:24;;;;;;;15.60;14.03;;;16.20;99.90;;;;;;6272580;22;20186;-84
2021/08/13 05:17:53;;;;;;;16.17;14.50;;;16.40;99.90;;;;;;6305894;22;20172;-84
2021/08/13 05:20:24;;;;;;;15.97;13.60;;;16.60;99.90;;;;;;6304084;22;20171;-85
2021/08/13 05:22:54;;;;;;;17.40;13.23;;;16.70;99.90;;;;;;6296368;22;20885;-82
2021/08/13 05:25:23;;;;;;;14.90;13.10;;;16.80;99.90;;;;;;6295408;22;20168;-84
2021/08/13 05:27:51;;;;;;;16.53;14.07;;;16.90;99.90;;;;;;6294594;22;20160;-87
2021/08/13 05:30:21;;;;;;;15.27;12.37;;;17.10;99.90;;;;;;6294567;22;20206;-83
2021/08/13 05:32:50;;;;;;;13.80;12.17;;;17.30;99.90;;;;;;6293900;22;20238;-83
2021/08/13 05:35:19;;;;;;;13.83;12.20;;;17.40;99.90;;;;;;6293355;22;20247;-87
2021/08/13 05:37:48;;;;;;;13.57;11.33;;;17.60;99.90;;;;;;6291216;22;20407;-85
2021/08/13 05:40:19;;;;;;;13.70;10.90;;;17.80;98.90;;;;;;6289787;22;20628;-82
2021/08/13 05:42:48;;;;;;;12.30;10.70;;;17.90;96.80;;;;;;6291183;22;20249;-84
2021/08/13 05:45:17;;;;;;;12.53;10.40;;;18.10;96.00;;;;;;6286201;22;20982;-86
2021/08/13 05:47:46;;;;;;;12.57;10.37;;;18.30;95.00;;;;;;6302921;22;20176;-84
2021/08/13 05:50:19;;;;;;;13.23;10.63;;;18.40;94.30;;;;;;6289551;22;20257;-84
2021/08/13 05:52:48;;;;;;;12.20;10.73;;;18.60;94.00;;;;;;6288732;22;20196;-87
2021/08/13 05:55:18;;;;;;;14.47;10.20;;;18.80;94.10;;;;;;6289416;22;20357;-86
2021/08/13 05:57:47;;;;;;;12.60;11.03;;;18.90;93.80;;;;;;6287820;22;20179;-81
2021/08/13 06:00:17;;;;;;;12.20;11.00;;;19.10;93.90;;;;;;6289661;22;20215;-87
2021/08/13 06:02:58;;;;;;;12.30;10.50;;;19.20;93.80;;;;;;6286698;22;20192;-83
2021/08/13 06:05:27;;;;;;;12.27;9.77;;;19.40;93.90;;;;;;6281820;22;20172;-83
2021/08/13 06:07:56;;;;;;;10.80;9.13;;;19.50;93.00;;;;;;6280931;22;20524;-86
2021/08/13 06:10:28;;;;;;;13.00;9.10;;;19.60;92.50;;;;;;6284745;22;20176;-83
2021/08/13 06:13:00;;;;;;;9.97;8.87;;;19.70;91.60;;;;;;6291031;22;20152;-85
2021/08/13 06:16:27;;;;;;;10.37;8.93;;;19.90;91.50;;;;;;6277755;22;20164;-85
2021/08/13 06:19:04;;;;;;;9.90;8.93;;;20.10;90.90;;;;;;6198766;23;20205;-84
2021/08/13 06:22:00;;;;;;;13.30;8.40;;;20.10;90.60;;;;;;6257841;22;20735;-85
2021/08/13 06:24:30;;;;;;;9.83;8.20;;;20.30;90.30;;;;;;6276165;22;20221;-84
2021/08/13 06:27:00;;;;;;;9.57;8.07;;;20.50;90.30;;;;;;6278509;22;20897;-86
2021/08/13 06:29:28;;;;;;;8.17;7.27;;;20.70;87.60;;;;;;6271040;22;20226;-87
2021/08/13 06:32:00;;;;;;;9.40;7.93;;;20.80;87.00;;;;;;6274860;22;20843;-83
2021/08/13 06:34:28;;;;;;;11.07;7.60;;;21.00;86.50;;;;;;6283417;22;20164;-86
2021/08/13 06:36:57;;;;;;;10.63;7.85;;;21.10;86.40;;;;;;6289111;22;20268;-84
2021/08/13 06:39:27;;;;;;;10.13;7.45;;;21.30;87.20;;;;;;6279639;22;20620;-83
2021/08/13 06:42:11;;;;;;;12.73;8.43;;;21.50;86.40;;;;;;6276762;22;20212;-86
2021/08/13 06:44:40;;;;;;;9.10;7.97;;;21.60;87.10;;;;;;6294204;22;20511;-82
2021/08/13 06:47:10;;;;;;;8.65;6.85;;;21.70;87.80;;;;;;6287860;22;20175;-82
2021/08/13 06:49:39;;;;;;;9.90;7.55;;;21.80;87.00;;;;;;6291653;22;20893;-84
2021/08/13 06:52:12;;;;;;;8.68;7.85;;;21.90;86.70;;;;;;6289220;22;20233;-84
2021/08/13 06:54:41;;;;;;;8.57;7.25;;;21.90;86.60;;;;;;6294930;22;20795;-83
2021/08/13 06:57:11;;;;;;;10.27;7.63;;;22.00;86.60;;;;;;6276916;22;20433;-82
2021/08/13 06:59:40;;;;;;;11.20;7.25;;;22.00;86.20;;;;;;6274064;22;20169;-83
2021/08/13 07:02:09;;;;;;;8.52;7.45;;;22.10;86.70;;;;;;6274169;22;20485;-81
2021/08/13 07:27:14;;;;;;;9.82;6.20;;;23.30;82.30;;;;;;5977973;23;20192;-84
2021/08/13 08:41:27;;;;;;;5.22;4.63;;;24.80;75.00;;;;;;5631715;24;20187;-82
2021/08/13 09:21:00;;;;;;;4.07;3.67;;;25.50;72.30;;;;;;5702508;24;20390;-87
2021/08/13 09:35:53;;;;;;;6.05;3.60;;;25.30;69.90;;;;;;5749000;24;20218;-86
2021/08/13 10:10:28;;;;;;;5.68;3.80;;;25.80;67.20;;;;;;5884798;24;20649;-86
2021/08/13 10:15:57;;;;;;;4.57;3.83;;;25.40;67.40;;;;;;6160330;22;20295;-87
2021/08/13 10:18:30;;;;;;;5.28;3.97;;;25.50;68.50;;;;;;6270802;22;20256;-83
2021/08/13 10:20:59;;;;;;;4.60;4.15;;;25.60;67.80;;;;;;6272380;22;20180;-84
2021/08/13 10:23:30;;;;;;;4.45;4.05;;;25.80;68.60;;;;;;6269062;22;20193;-88
2021/08/13 10:26:10;;;;;;;6.03;4.50;;;25.90;67.70;;;;;;6271202;22;20188;-86
2021/08/13 10:28:42;;;;;;;4.35;3.63;;;25.80;66.90;;;;;;6266002;22;20404;-87
2021/08/13 10:31:13;;;;;;;3.85;3.53;;;25.70;67.60;;;;;;6267856;22;20235;-87
2021/08/13 10:33:45;;;;;;;4.35;3.75;;;25.70;67.80;;;;;;6226526;22;20260;-86
2021/08/13 10:36:18;;;;;;;4.57;4.00;;;25.70;66.80;;;;;;6269752;22;20379;-85
2021/08/13 10:38:51;;;;;;;4.57;3.88;;;25.70;67.40;;;;;;6272634;22;20173;-87
2021/08/13 10:41:28;;;;;;;3.97;3.60;;;25.80;67.70;;;;;;6275011;22;20228;-85
2021/08/13 10:44:01;;;;;;;5.93;3.90;;;25.80;67.50;;;;;;6276597;22;20204;-87
2021/08/13 10:46:33;;;;;;;4.90;3.75;;;25.90;67.30;;;;;;6278591;22;20257;-86
2021/08/13 10:49:03;;;;;;;3.90;3.60;;;25.90;67.60;;;;;;6271659;22;20923;-86
2021/08/13 10:51:33;;;;;;;4.40;3.90;;;25.90;67.40;;;;;;6267434;22;20978;-87
2021/08/13 10:54:07;;;;;;;4.63;3.90;;;25.90;67.10;;;;;;6274037;22;20149;-86
2021/08/13 10:56:40;;;;;;;4.43;4.03;;;26.00;67.20;;;;;;6271460;22;21416;-87
2021/08/13 10:59:09;;;;;;;4.70;4.03;;;26.10;67.80;;;;;;6283262;22;20231;-87
2021/08/13 11:02:15;;;;;;;4.10;3.70;;;26.30;67.40;;;;;;6279901;22;20186;-86
2021/08/13 11:04:47;;;;;;;4.10;3.70;;;26.30;68.40;;;;;;6272708;22;20192;-87
2021/08/13 11:07:57;;;;;;;5.10;3.95;;;26.40;67.70;;;;;;6263715;22;20669;-84
2021/08/13 11:10:59;;;;;;;3.80;3.50;;;26.40;67.50;;;;;;6260226;22;20172;-86
2021/08/13 11:13:36;;;;;;;4.28;3.38;;;26.30;66.60;;;;;;6257552;22;20356;-87
2021/08/13 11:16:34;;;;;;;5.38;4.03;;;26.10;66.20;;;;;;6258697;22;20165;-84
2021/08/13 11:19:06;;;;;;;4.53;4.00;;;26.00;66.50;;;;;;6249721;22;20593;-85
2021/08/13 11:21:40;;;;;;;4.90;3.65;;;25.90;66.70;;;;;;6267844;22;20374;-86
2021/08/13 11:24:12;;;;;;;5.35;3.55;;;25.80;67.10;;;;;;6256453;22;21095;-88
2021/08/13 11:27:10;;;;;;;4.38;3.97;;;25.60;66.80;;;;;;6252843;22;20183;-85
2021/08/13 11:29:44;;;;;;;4.50;4.05;;;25.60;66.10;;;;;;6246742;22;20161;-84
2021/08/13 11:32:31;;;;;;;4.65;3.80;;;25.50;65.80;;;;;;6251452;22;20173;-83
2021/08/13 11:35:06;;;;;;;4.68;3.83;;;25.50;66.50;;;;;;6261764;22;20177;-87
2021/08/13 11:37:47;;;;;;;3.80;3.50;;;25.50;66.20;;;;;;6264071;22;20176;-89
2021/08/13 11:40:51;;;;;;;3.60;3.30;;;25.50;65.80;;;;;;6248579;22;20615;-88
2021/08/13 11:43:20;;;;;;;3.90;3.60;;;25.50;66.90;;;;;;6254425;22;20170;-88
2021/08/13 11:45:51;;;;;;;4.47;4.07;;;25.60;66.10;;;;;;6250807;22;20167;-84
2021/08/13 11:48:21;;;;;;;3.70;3.40;;;25.60;66.50;;;;;;6235698;22;20185;-87
2021/08/13 11:50:51;;;;;;;3.75;3.45;;;25.60;66.40;;;;;;6249943;22;20943;-88
2021/08/13 11:53:45;;;;;;;3.97;3.42;;;25.60;66.60;;;;;;6260472;22;20173;-85
2021/08/13 11:56:28;;;;;;;5.18;3.83;;;25.50;66.30;;;;;;6241799;22;20177;-86
2021/08/13 11:59:04;;;;;;;4.45;3.80;;;25.50;66.40;;;;;;6244979;22;20164;-87
2021/08/13 12:01:50;;;;;;;4.75;4.00;;;25.50;66.40;;;;;;6252817;22;20686;-85
2021/08/13 12:04:22;;;;;;;4.15;3.75;;;25.70;67.00;;;;;;6256916;22;20187;-86
2021/08/13 12:07:03;;;;;;;4.05;3.60;;;25.90;67.00;;;;;;6250425;22;20679;-86
2021/08/13 12:09:34;;;;;;;4.35;3.90;;;26.00;66.50;;;;;;6253149;22;20183;-86
2021/08/13 12:12:07;;;;;;;4.53;4.05;;;26.20;66.40;;;;;;6266126;22;20165;-88
2021/08/13 12:14:37;;;;;;;4.93;3.83;;;26.40;65.50;;;;;;6282854;22;20164;-89
2021/08/13 12:17:08;;;;;;;4.63;4.22;;;26.40;64.90;;;;;;6247424;22;20260;-89
2021/08/13 12:19:38;;;;;;;4.55;3.80;;;26.40;65.80;;;;;;6270864;22;20369;-87
2021/08/13 12:22:09;;;;;;;4.72;3.75;;;26.50;65.20;;;;;;6274939;22;20432;-88
2021/08/13 12:24:40;;;;;;;3.92;3.63;;;26.70;65.20;;;;;;6265430;22;20344;-87
2021/08/13 12:27:11;;;;;;;5.82;3.80;;;26.70;64.90;;;;;;6268625;22;20168;-87
2021/08/13 12:29:41;;;;;;;4.07;3.65;;;26.70;65.40;;;;;;6271271;22;20157;-87
2021/08/13 12:32:12;;;;;;;5.35;3.88;;;26.70;65.00;;;;;;6256510;22;20725;-90
2021/08/13 12:34:45;;;;;;;4.13;3.80;;;26.70;65.60;;;;;;6251549;22;20224;-88
2021/08/13 12:40:47;;;;;;;4.60;4.10;;;26.70;64.70;;;;;;6264942;22;20172;-88
2021/08/13 12:49:22;;;;;;;4.32;3.63;;;26.40;65.20;;;;;;6213976;22;20224;-89
2021/08/13 12:52:11;;;;;;;4.38;3.97;;;26.50;65.90;;;;;;6286089;22;20161;-89
2021/08/13 12:54:44;;;;;;;4.05;3.75;;;26.80;66.50;;;;;;6273781;22;20263;-89
2021/08/13 12:57:38;;;;;;;6.57;3.92;;;26.60;65.00;;;;;;6264747;22;20208;-90
2021/08/13 13:00:11;;;;;;;4.40;4.00;;;26.60;65.40;;;;;;6262545;22;20220;-90
2021/08/13 13:02:44;;;;;;;6.50;3.83;;;26.70;66.80;;;;;;6253579;22;20198;-91
2021/08/13 13:05:18;;;;;;;4.13;3.72;;;26.90;65.70;;;;;;6226240;22;20515;-87
2021/08/13 13:08:06;;;;;;;4.75;4.32;;;27.20;64.80;;;;;;6239645;23;20611;-89
2021/08/13 13:10:40;;;;;;;4.90;3.92;;;27.40;65.00;;;;;;6224638;23;20189;-89
2021/08/13 13:13:28;;;;;;;4.20;3.83;;;27.50;64.00;;;;;;6225465;23;20571;-92
2021/08/13 13:16:08;;;;;;;3.92;3.55;;;27.70;63.40;;;;;;6233654;22;20735;-88
2021/08/13 13:18:41;;;;;;;6.53;4.40;;;27.90;63.60;;;;;;6230972;23;20317;-88
2021/08/13 13:21:26;;;;;;;5.85;4.15;;;27.90;63.80;;;;;;6241987;22;20173;-89
2021/08/13 13:24:01;;;;;;;5.40;4.57;;;28.20;64.20;;;;;;6220303;22;20741;-90
2021/08/13 13:27:01;;;;;;;6.57;4.60;;;28.20;62.10;;;;;;6243552;22;20180;-89
2021/08/13 13:29:48;;;;;;;7.55;4.57;;;28.30;62.30;;;;;;6227199;22;20662;-90
2021/08/13 13:36:00;;;;;;;4.93;4.28;;;28.30;61.40;;;;;;6120947;22;20189;-89
2021/08/13 13:44:46;;;;;;;5.00;4.60;;;28.20;61.60;;;;;;6187935;22;20512;-88
2021/08/13 13:47:21;;;;;;;5.03;4.55;;;28.00;62.30;;;;;;6237330;22;20181;-88
2021/08/13 13:50:14;;;;;;;5.38;4.78;;;28.10;62.30;;;;;;6276107;22;20165;-91
2021/08/13 13:53:04;;;;;;;4.63;4.22;;;28.20;61.80;;;;;;6253930;22;20259;-87
2021/08/13 13:55:46;;;;;;;4.20;3.72;;;28.60;62.00;;;;;;6248863;22;20180;-89
2021/08/13 13:58:31;;;;;;;4.70;4.32;;;28.70;61.70;;;;;;6238112;22;20177;-91
2021/08/13 14:01:01;;;;;;;4.95;4.55;;;28.80;62.20;;;;;;6241155;22;20177;-88
2021/08/13 14:03:37;;;;;;;4.88;4.47;;;29.00;61.70;;;;;;6287454;22;20158;-89
2021/08/13 14:06:16;;;;;;;4.28;3.97;;;29.10;61.70;;;;;;6279069;22;20227;-89
2021/08/13 14:12:09;;;;;;;5.68;4.40;;;29.30;61.80;;;;;;6278964;22;20181;-91
2021/08/13 14:15:16;;;;;;;4.40;4.00;;;29.70;61.60;;;;;;6226945;22;20502;-89
2021/08/13 14:18:07;;;;;;;4.80;4.40;;;30.20;59.90;;;;;;6217824;23;20213;-90
2021/08/13 14:21:13;;;;;;;5.03;4.32;;;30.70;59.60;;;;;;6178703;23;20205;-89
2021/08/13 14:23:47;;;;;;;4.80;4.40;;;31.40;59.60;;;;;;6189766;23;20177;-91
2021/08/13 14:26:20;;;;;;;4.72;4.40;;;32.10;58.40;;;;;;6193209;23;20208;-92
2021/08/13 14:28:59;;;;;;;5.53;4.07;;;32.40;59.10;;;;;;6232028;23;20633;-89
2021/08/13 14:31:31;;;;;;;4.80;4.40;;;33.20;56.00;;;;;;6191856;23;20178;-89
2021/08/13 14:34:07;;;;;;;4.90;4.32;;;33.50;55.90;;;;;;6190097;23;20181;-91
2021/08/13 14:36:45;;;;;;;4.97;4.47;;;33.20;54.90;;;;;;6190799;23;20201;-86
2021/08/13 14:39:16;;;;;;;4.60;4.20;;;33.30;55.60;;;;;;6211277;23;20690;-88
2021/08/13 14:41:52;;;;;;;6.50;4.65;;;33.10;55.50;;;;;;6206614;23;20175;-89
2021/08/13 14:44:41;;;;;;;4.78;4.13;;;33.00;54.40;;;;;;6164740;23;20190;-89
2021/08/13 14:47:11;;;;;;;7.05;4.47;;;33.10;55.30;;;;;;6157559;23;20202;-87
2021/08/13 14:49:42;;;;;;;5.03;4.38;;;33.30;55.00;;;;;;6195791;23;20179;-89
2021/08/13 14:52:25;;;;;;;4.75;4.35;;;33.60;53.70;;;;;;6210212;22;20185;-90
2021/08/13 14:55:15;;;;;;;4.90;4.53;;;33.30;53.20;;;;;;6155583;23;20201;-87
2021/08/13 14:58:06;;;;;;;4.30;4.00;;;33.40;52.90;;;;;;6180733;23;20183;-91
2021/08/13 15:01:01;;;;;;;4.75;4.30;;;33.20;52.20;;;;;;6157984;23;20174;-89
2021/08/13 15:03:56;;;;;;;5.45;4.78;;;32.70;52.80;;;;;;6167136;23;20173;-90
2021/08/13 15:06:59;;;;;;;5.03;4.63;;;32.10;53.10;;;;;;6210376;22;20786;-87
2021/08/13 15:29:54;;;;;;;4.53;4.13;;;31.40;53.10;;;;;;6284951;22;20173;-89
2021/08/13 15:32:30;;;;;;;4.97;4.15;;;30.80;53.00;;;;;;6278825;22;20259;-87
2021/08/13 15:35:18;;;;;;;4.45;4.10;;;31.20;53.30;;;;;;6250895;22;20238;-88
2021/08/13 15:38:02;;;;;;;4.18;3.88;;;31.70;53.40;;;;;;6249172;22;20176;-87
2021/08/13 15:43:42;;;;;;;5.10;3.78;;;32.50;52.00;;;;;;6251138;22;20250;-90
2021/08/13 15:52:45;;;;;;;4.47;4.07;;;33.00;51.30;;;;;;6253972;22;20453;-88
2021/08/13 15:55:26;;;;;;;4.00;3.60;;;33.30;51.50;;;;;;6300111;22;20200;-89
2021/08/13 16:01:05;;;;;;;4.05;3.65;;;33.40;51.20;;;;;;6291124;22;20165;-88
2021/08/13 16:03:49;;;;;;;6.00;4.07;;;33.10;50.80;;;;;;6305005;22;20597;-89
2021/08/13 16:06:25;;;;;;;5.13;4.43;;;32.30;50.80;;;;;;6305173;22;20227;-89
2021/08/13 16:08:54;;;;;;;4.93;4.40;;;31.70;51.30;;;;;;6268666;22;20264;-88
2021/08/13 16:11:36;;;;;;;4.50;4.20;;;31.10;51.70;;;;;;6299056;22;20165;-89
2021/08/13 16:14:28;;;;;;;4.97;4.47;;;31.20;52.80;;;;;;6253702;22;20183;-89
2021/08/13 16:17:10;;;;;;;5.20;4.18;;;30.70;53.00;;;;;;6296557;22;20191;-87
2021/08/13 16:19:48;;;;;;;5.53;4.50;;;29.70;52.50;;;;;;6294691;22;20184;-90
2021/08/13 16:22:19;;;;;;;4.65;4.25;;;29.00;53.20;;;;;;6290502;22;20690;-89
2021/08/13 16:24:52;;;;;;;4.68;4.35;;;28.30;54.30;;;;;;6252211;22;20595;-88
2021/08/13 16:27:25;;;;;;;4.78;4.22;;;27.80;55.20;;;;;;6289733;22;20263;-88
2021/08/13 16:29:56;;;;;;;5.00;4.50;;;27.30;54.70;;;;;;6297093;22;20629;-87
2021/08/13 16:35:22;;;;;;;4.95;4.55;;;26.50;56.40;;;;;;6284602;22;20181;-90
2021/08/13 16:37:55;;;;;;;4.82;3.83;;;26.30;56.60;;;;;;6262366;22;20566;-90
2021/08/13 16:43:12;;;;;;;5.25;4.13;;;25.90;57.40;;;;;;6288292;22;20264;-88
2021/08/13 16:45:44;;;;;;;5.60;4.38;;;25.70;60.20;;;;;;6297202;22;20180;-91
2021/08/13 16:48:19;;;;;;;4.72;4.30;;;25.50;58.50;;;;;;6242964;22;20725;-87
2021/08/13 16:51:02;;;;;;;5.13;4.63;;;25.30;60.20;;;;;;6293237;22;20255;-91
2021/08/13 16:53:43;;;;;;;4.90;4.43;;;25.10;60.30;;;;;;6297712;22;20192;-88
2021/08/13 16:56:16;;;;;;;5.88;4.90;;;24.90;60.60;;;;;;6241204;22;20211;-86
2021/08/13 17:11:04;;;;;;;;;;;;;;;;;;;;;
2021/08/13 17:32:26;;;;;;;6.47;5.88;;;22.60;75.40;;;;;;6209533;23;20230;-89
2021/08/13 19:05:55;;;;;;;10.70;8.93;;;18.70;92.50;;;;;;6191551;22;20219;-87
2021/08/13 20:05:21;;;;;;;14.90;12.33;;;17.90;99.50;;;;;;6188199;22;20205;-90
2021/08/13 20:27:57;;;;;;;15.73;14.13;;;17.60;99.90;;;;;;6306400;22;20280;-87
2021/08/13 20:30:44;;;;;;;15.93;14.33;;;17.50;99.90;;;;;;6300701;22;20156;-88
2021/08/13 22:35:23;;;;;;;20.67;18.57;;;16.50;99.90;;;;;;6206195;22;20279;-88